createdAt,value
2019-05-18T00:00:56.283Z,99.99
2019-05-18T00:01:56.283Z,99.99
2019-05-18T00:02:56.264Z,99.99
2019-05-18T00:03:56.259Z,99.99
2019-05-18T00:04:56.250Z,99.99
2019-05-18T00:05:56.240Z,99.99
2019-05-18T00:06:56.238Z,99.99
2019-05-18T00:07:56.221Z,99.99
2019-05-18T00:08:56.208Z,99.99
2019-05-18T00:09:56.204Z,99.99
2019-05-18T00:10:56.191Z,99.99
2019-05-18T00:11:56.183Z,99.99
2019-05-18T00:12:56.173Z,99.99
2019-05-18T00:13:56.167Z,99.99
2019-05-18T00:14:56.154Z,99.99
2019-05-18T00:15:56.147Z,99.99
2019-05-18T00:16:56.141Z,99.99
2019-05-18T00:17:56.126Z,99.99
2019-05-18T00:18:56.122Z,99.99
2019-05-18T00:19:56.116Z,99.99
2019-05-18T00:20:56.098Z,99.99
2019-05-18T00:21:56.091Z,99.99
2019-05-18T00:22:56.082Z,99.99
2019-05-18T00:23:56.072Z,99.99
2019-05-18T00:24:56.064Z,99.99
2019-05-18T00:25:56.054Z,99.99
2019-05-18T00:26:56.041Z,99.99
2019-05-18T00:27:56.036Z,99.99
2019-05-18T00:28:56.023Z,99.99
2019-05-18T00:29:56.019Z,99.99
2019-05-18T00:30:56.014Z,99.99
2019-05-18T00:31:55.999Z,99.99
2019-05-18T00:32:55.992Z,99.99
2019-05-18T00:33:55.982Z,99.99
2019-05-18T00:34:55.971Z,99.99
2019-05-18T00:35:55.962Z,99.99
2019-05-18T00:36:55.950Z,99.99
2019-05-18T00:37:55.941Z,99.99
2019-05-18T00:38:55.936Z,99.99
2019-05-18T00:39:55.927Z,99.99
2019-05-18T00:40:55.914Z,99.99
2019-05-18T00:41:55.902Z,99.99
2019-05-18T00:42:55.902Z,99.99
2019-05-18T00:43:55.885Z,99.99
2019-05-18T00:44:55.876Z,99.99
2019-05-18T00:45:55.867Z,99.99
2019-05-18T00:46:55.857Z,99.99
2019-05-18T00:47:55.857Z,99.99
2019-05-18T00:48:55.839Z,99.99
2019-05-18T00:49:55.831Z,99.99
2019-05-18T00:50:55.820Z,99.99
2019-05-18T00:51:55.819Z,99.99
2019-05-18T00:52:55.805Z,99.99
2019-05-18T00:53:55.793Z,99.99
2019-05-18T00:54:55.785Z,99.99
2019-05-18T00:55:55.777Z,99.99
2019-05-18T00:56:55.765Z,99.99
2019-05-18T00:57:55.754Z,99.99
2019-05-18T00:58:55.747Z,99.99
2019-05-18T00:59:55.738Z,99.99
2019-05-18T01:00:55.730Z,99.99
2019-05-18T01:01:55.721Z,99.99
2019-05-18T01:02:55.707Z,99.99
2019-05-18T01:03:55.701Z,99.99
2019-05-18T01:04:55.693Z,99.99
2019-05-18T01:05:55.681Z,99.99
2019-05-18T01:06:55.677Z,99.99
2019-05-18T01:07:55.664Z,99.99
2019-05-18T01:08:55.653Z,99.99
2019-05-18T01:09:55.646Z,99.99
2019-05-18T01:10:55.633Z,99.99
2019-05-18T01:11:55.625Z,99.99
2019-05-18T01:12:55.617Z,99.99
2019-05-18T01:13:55.606Z,99.99
2019-05-18T01:14:55.597Z,99.99
2019-05-18T01:15:55.588Z,99.99
2019-05-18T01:16:55.620Z,99.99
2019-05-18T01:17:57.748Z,99.99
2019-05-18T01:18:55.557Z,99.99
2019-05-18T01:19:55.551Z,99.99
2019-05-18T01:20:55.537Z,99.99
2019-05-18T01:21:55.531Z,99.99
2019-05-18T01:22:55.522Z,99.99
2019-05-18T01:23:55.511Z,99.99
2019-05-18T01:24:55.506Z,99.99
2019-05-18T01:25:55.493Z,99.99
2019-05-18T01:26:55.483Z,99.99
2019-05-18T01:27:55.473Z,99.99
2019-05-18T01:28:55.466Z,99.99
2019-05-18T01:29:55.457Z,99.99
2019-05-18T01:30:55.447Z,99.99
2019-05-18T01:31:55.442Z,99.99
2019-05-18T01:32:55.427Z,99.99
2019-05-18T01:33:55.417Z,99.99
2019-05-18T01:34:55.411Z,99.99
2019-05-18T01:35:55.419Z,99.99
2019-05-18T01:36:55.389Z,99.99
2019-05-18T01:37:55.381Z,99.99
2019-05-18T01:38:55.371Z,99.99
2019-05-18T01:39:55.362Z,99.99
2019-05-18T01:40:55.352Z,99.99
2019-05-18T01:41:55.340Z,99.99
2019-05-18T01:42:55.332Z,99.99
2019-05-18T01:43:55.325Z,99.99
2019-05-18T01:44:55.315Z,99.99
2019-05-18T01:45:55.305Z,99.99
2019-05-18T01:46:55.295Z,99.99
2019-05-18T01:47:55.285Z,99.99
2019-05-18T01:48:55.280Z,99.99
2019-05-18T01:49:55.270Z,99.99
2019-05-18T01:50:55.261Z,99.99
2019-05-18T01:51:55.248Z,99.99
2019-05-18T01:52:55.240Z,99.99
2019-05-18T01:53:55.235Z,99.99
2019-05-18T01:54:55.221Z,99.99
2019-05-18T01:55:55.211Z,99.99
2019-05-18T01:56:55.203Z,99.99
2019-05-18T01:57:55.192Z,99.99
2019-05-18T01:58:55.186Z,99.99
2019-05-18T01:59:55.172Z,99.99
2019-05-18T02:00:55.163Z,99.99
2019-05-18T02:01:55.155Z,99.99
2019-05-18T02:02:55.149Z,99.99
2019-05-18T02:03:55.137Z,99.99
2019-05-18T02:04:55.130Z,99.99
2019-05-18T02:05:55.117Z,99.99
2019-05-18T02:06:55.107Z,99.99
2019-05-18T02:07:55.104Z,99.99
2019-05-18T02:08:55.087Z,99.99
2019-05-18T02:09:55.078Z,99.99
2019-05-18T02:10:55.103Z,99.99
2019-05-18T02:11:55.063Z,99.99
2019-05-18T02:12:55.053Z,99.99
2019-05-18T02:13:55.045Z,99.99
2019-05-18T02:14:55.032Z,99.99
2019-05-18T02:15:55.027Z,99.99
2019-05-18T02:16:55.017Z,99.99
2019-05-18T02:17:55.086Z,99.99
2019-05-18T02:18:54.996Z,99.99
2019-05-18T02:19:54.988Z,99.99
2019-05-18T02:20:54.975Z,99.99
2019-05-18T02:21:54.969Z,99.99
2019-05-18T02:22:54.959Z,99.99
2019-05-18T02:23:54.948Z,99.99
2019-05-18T02:24:54.941Z,99.99
2019-05-18T02:25:54.935Z,99.99
2019-05-18T02:26:54.921Z,99.99
2019-05-18T02:27:54.916Z,99.99
2019-05-18T02:28:54.908Z,99.99
2019-05-18T02:29:54.897Z,99.99
2019-05-18T02:30:54.883Z,99.99
2019-05-18T02:31:54.876Z,99.99
2019-05-18T02:32:54.868Z,99.99
2019-05-18T02:33:54.856Z,99.99
2019-05-18T02:34:54.848Z,99.99
2019-05-18T02:35:54.843Z,99.99
2019-05-18T02:36:54.829Z,99.99
2019-05-18T02:37:54.819Z,99.99
2019-05-18T02:38:54.806Z,99.99
2019-05-18T02:39:54.801Z,99.99
2019-05-18T02:40:54.789Z,99.99
2019-05-18T02:41:54.784Z,99.99
2019-05-18T02:42:54.770Z,99.99
2019-05-18T02:43:54.761Z,99.99
2019-05-18T02:44:54.748Z,99.99
2019-05-18T02:45:54.744Z,99.99
2019-05-18T02:46:54.734Z,99.99
2019-05-18T02:47:54.723Z,99.99
2019-05-18T02:48:54.714Z,99.99
2019-05-18T02:49:54.707Z,99.99
2019-05-18T02:50:54.694Z,99.99
2019-05-18T02:51:54.686Z,99.99
2019-05-18T02:52:54.678Z,99.99
2019-05-18T02:53:54.667Z,99.99
2019-05-18T02:54:54.668Z,99.99
2019-05-18T02:55:54.650Z,99.99
2019-05-18T02:56:54.640Z,99.99
2019-05-18T02:57:54.652Z,99.99
2019-05-18T02:58:54.618Z,99.99
2019-05-18T02:59:54.611Z,99.99
2019-05-18T03:00:54.600Z,99.99
2019-05-18T03:01:54.592Z,99.99
2019-05-18T03:02:54.582Z,99.99
2019-05-18T03:03:54.581Z,99.99
2019-05-18T03:04:54.563Z,99.99
2019-05-18T03:05:54.552Z,99.99
2019-05-18T03:06:54.543Z,99.99
2019-05-18T03:07:54.537Z,99.99
2019-05-18T03:08:54.529Z,99.99
2019-05-18T03:09:54.517Z,99.99
2019-05-18T03:10:54.506Z,99.99
2019-05-18T03:11:54.497Z,99.99
2019-05-18T03:12:54.491Z,99.99
2019-05-18T03:13:54.481Z,99.99
2019-05-18T03:14:54.469Z,99.99
2019-05-18T03:15:54.457Z,99.99
2019-05-18T03:16:54.467Z,99.99
2019-05-18T03:17:54.441Z,99.99
2019-05-18T03:19:07.330Z,99.99
2019-05-18T03:19:54.502Z,99.99
2019-05-18T03:20:54.415Z,99.99
2019-05-18T03:21:54.404Z,99.99
2019-05-18T03:22:54.399Z,99.99
2019-05-18T03:23:54.385Z,99.99
2019-05-18T03:24:54.373Z,99.99
2019-05-18T03:25:54.367Z,99.99
2019-05-18T03:26:54.354Z,99.99
2019-05-18T03:27:54.347Z,99.99
2019-05-18T03:28:54.335Z,99.99
2019-05-18T03:29:54.328Z,99.99
2019-05-18T03:30:54.328Z,99.99
2019-05-18T03:31:54.310Z,99.99
2019-05-18T03:32:54.304Z,99.99
2019-05-18T03:33:54.292Z,99.99
2019-05-18T03:34:54.279Z,99.99
2019-05-18T03:35:54.269Z,99.99
2019-05-18T03:36:54.271Z,99.99
2019-05-18T03:37:54.250Z,99.99
2019-05-18T03:38:54.240Z,99.99
2019-05-18T03:39:54.232Z,99.99
2019-05-18T03:40:54.221Z,99.99
2019-05-18T03:41:54.211Z,99.99
2019-05-18T03:42:54.200Z,99.99
2019-05-18T03:43:54.197Z,99.99
2019-05-18T03:44:54.184Z,99.99
2019-05-18T03:45:54.187Z,99.99
2019-05-18T03:46:54.173Z,99.99
2019-05-18T03:47:54.158Z,99.99
2019-05-18T03:48:54.144Z,99.99
2019-05-18T03:49:54.135Z,99.99
2019-05-18T03:50:54.126Z,99.99
2019-05-18T03:51:54.115Z,99.99
2019-05-18T03:52:54.107Z,99.99
2019-05-18T03:53:54.103Z,99.99
2019-05-18T03:54:54.092Z,99.99
2019-05-18T03:55:54.079Z,99.99
2019-05-18T03:56:54.073Z,99.99
2019-05-18T03:57:54.057Z,99.99
2019-05-18T03:58:54.052Z,99.99
2019-05-18T03:59:54.036Z,99.99
2019-05-18T04:00:54.031Z,99.99
2019-05-18T04:01:54.021Z,99.99
2019-05-18T04:02:54.008Z,99.99
2019-05-18T04:03:54.000Z,99.99
2019-05-18T04:04:53.991Z,99.99
2019-05-18T04:05:53.981Z,99.99
2019-05-18T04:06:53.972Z,99.99
2019-05-18T04:07:53.966Z,99.99
2019-05-18T04:08:53.952Z,99.99
2019-05-18T04:09:53.943Z,99.99
2019-05-18T04:10:53.960Z,99.99
2019-05-18T04:11:53.923Z,99.99
2019-05-18T04:12:53.917Z,99.99
2019-05-18T04:13:53.904Z,99.99
2019-05-18T04:14:53.900Z,99.99
2019-05-18T04:15:53.888Z,99.99
2019-05-18T04:16:53.875Z,99.99
2019-05-18T04:17:53.874Z,99.99
2019-05-18T04:18:53.860Z,99.99
2019-05-18T04:19:53.850Z,99.99
2019-05-18T04:20:53.837Z,99.99
2019-05-18T04:21:53.831Z,99.99
2019-05-18T04:22:53.821Z,99.99
2019-05-18T04:23:53.810Z,99.99
2019-05-18T04:24:53.802Z,99.99
2019-05-18T04:25:53.794Z,99.99
2019-05-18T04:26:53.785Z,99.99
2019-05-18T04:27:53.774Z,99.99
2019-05-18T04:28:53.760Z,99.99
2019-05-18T04:29:53.757Z,99.99
2019-05-18T04:30:53.745Z,99.99
2019-05-18T04:31:53.734Z,99.99
2019-05-18T04:32:53.729Z,99.99
2019-05-18T04:33:53.718Z,99.99
2019-05-18T04:34:53.706Z,99.99
2019-05-18T04:35:53.696Z,99.99
2019-05-18T04:36:53.686Z,99.99
2019-05-18T04:37:53.679Z,99.99
2019-05-18T04:38:53.669Z,99.99
2019-05-18T04:39:53.660Z,99.99
2019-05-18T04:40:53.651Z,99.99
2019-05-18T04:41:53.641Z,99.99
2019-05-18T04:42:53.635Z,99.99
2019-05-18T04:43:53.625Z,99.99
2019-05-18T04:44:53.612Z,99.99
2019-05-18T04:45:53.606Z,99.99
2019-05-18T04:46:53.596Z,99.99
2019-05-18T04:47:53.590Z,99.99
2019-05-18T04:48:53.578Z,99.99
2019-05-18T04:50:04.349Z,99.99
2019-05-18T04:50:53.558Z,99.99
2019-05-18T04:51:53.550Z,99.99
2019-05-18T04:52:53.540Z,99.99
2019-05-18T04:53:53.530Z,99.99
2019-05-18T04:54:53.522Z,99.99
2019-05-18T04:55:53.515Z,99.99
2019-05-18T04:56:53.503Z,99.99
2019-05-18T04:57:53.494Z,99.99
2019-05-18T04:58:53.486Z,99.99
2019-05-18T04:59:53.476Z,99.99
2019-05-18T05:00:53.466Z,99.99
2019-05-18T05:01:53.475Z,99.99
2019-05-18T05:02:53.451Z,99.99
2019-05-18T05:03:53.452Z,99.99
2019-05-18T05:04:56.574Z,99.99
2019-05-18T05:05:53.422Z,99.99
2019-05-18T05:06:53.411Z,99.99
2019-05-18T05:07:53.403Z,99.99
2019-05-18T05:08:53.398Z,99.99
2019-05-18T05:09:53.386Z,99.99
2019-05-18T05:10:53.376Z,99.99
2019-05-18T05:11:53.367Z,99.99
2019-05-18T05:12:53.360Z,99.99
2019-05-18T05:13:53.349Z,99.99
2019-05-18T05:14:53.341Z,99.99
2019-05-18T05:15:53.339Z,99.99
2019-05-18T05:16:53.322Z,99.99
2019-05-18T05:17:53.313Z,99.99
2019-05-18T05:18:53.307Z,99.99
2019-05-18T05:19:53.296Z,99.99
2019-05-18T05:20:53.284Z,99.99
2019-05-18T05:21:53.277Z,99.99
2019-05-18T05:22:53.274Z,99.99
2019-05-18T05:23:53.261Z,99.99
2019-05-18T05:24:53.253Z,99.99
2019-05-18T05:25:53.241Z,99.99
2019-05-18T05:26:53.236Z,99.99
2019-05-18T05:27:53.231Z,99.99
2019-05-18T05:28:53.215Z,99.99
2019-05-18T05:29:53.211Z,99.99
2019-05-18T05:30:53.201Z,99.99
2019-05-18T05:31:53.198Z,99.99
2019-05-18T05:32:53.183Z,99.99
2019-05-18T05:33:53.180Z,99.99
2019-05-18T05:34:53.167Z,99.99
2019-05-18T05:35:53.158Z,99.99
2019-05-18T05:36:53.150Z,99.99
2019-05-18T05:37:53.147Z,99.99
2019-05-18T05:38:53.135Z,99.99
2019-05-18T05:39:53.130Z,99.99
2019-05-18T05:40:53.118Z,99.99
2019-05-18T05:41:53.111Z,99.82
2019-05-18T05:42:53.106Z,97.66
2019-05-18T05:43:53.099Z,98.47
2019-05-18T05:44:53.088Z,97.47
2019-05-18T05:45:53.085Z,97.23
2019-05-18T05:46:53.077Z,96.80
2019-05-18T05:47:53.069Z,96.80
2019-05-18T05:48:53.060Z,96.94
2019-05-18T05:49:53.054Z,96.84
2019-05-18T05:50:53.043Z,95.03
2019-05-18T05:51:53.037Z,95.56
2019-05-18T05:52:53.030Z,96.37
2019-05-18T05:53:53.030Z,96.18
2019-05-18T05:54:53.019Z,94.84
2019-05-18T05:55:53.010Z,93.21
2019-05-18T05:56:52.998Z,93.21
2019-05-18T05:57:53.000Z,93.30
2019-05-18T05:58:53.028Z,92.63
2019-05-18T05:59:52.983Z,92.25
2019-05-18T06:00:52.970Z,92.15
2019-05-18T06:01:52.965Z,92.35
2019-05-18T06:02:52.961Z,93.02
2019-05-18T06:03:52.950Z,93.02
2019-05-18T06:04:52.944Z,92.15
2019-05-18T06:05:52.936Z,92.73
2019-05-18T06:06:52.929Z,90.81
2019-05-18T06:07:52.927Z,92.44
2019-05-18T06:08:52.917Z,93.69
2019-05-18T06:09:52.906Z,92.82
2019-05-18T06:10:52.901Z,92.06
2019-05-18T06:11:52.893Z,90.53
2019-05-18T06:12:52.885Z,91.86
2019-05-18T06:13:52.878Z,91.96
2019-05-18T06:14:52.877Z,92.06
2019-05-18T06:15:52.868Z,91.39
2019-05-18T06:16:52.856Z,91.10
2019-05-18T06:17:52.850Z,90.14
2019-05-18T06:18:52.844Z,90.43
2019-05-18T06:19:52.838Z,90.62
2019-05-18T06:20:52.827Z,89.95
2019-05-18T06:21:52.822Z,89.28
2019-05-18T06:22:52.817Z,89.18
2019-05-18T06:23:52.814Z,89.09
2019-05-18T06:24:52.802Z,90.53
2019-05-18T06:25:52.798Z,89.66
2019-05-18T06:26:52.786Z,89.37
2019-05-18T06:27:52.779Z,88.99
2019-05-18T06:28:52.774Z,88.90
2019-05-18T06:29:52.811Z,89.09
2019-05-18T06:30:52.771Z,90.23
2019-05-18T06:31:52.754Z,90.43
2019-05-18T06:32:52.748Z,90.29
2019-05-18T06:33:52.738Z,92.58
2019-05-18T06:34:52.731Z,94.50
2019-05-18T06:35:52.723Z,95.61
2019-05-18T06:36:55.839Z,95.61
2019-05-18T06:37:52.706Z,95.79
2019-05-18T06:38:52.701Z,95.51
2019-05-18T06:39:52.693Z,95.07
2019-05-18T06:40:52.712Z,94.40
2019-05-18T06:41:52.680Z,93.64
2019-05-18T06:42:52.674Z,93.54
2019-05-18T06:43:52.666Z,93.54
2019-05-18T06:44:52.658Z,93.26
2019-05-18T06:45:52.652Z,92.68
2019-05-18T06:46:52.645Z,92.15
2019-05-18T06:47:52.635Z,92.25
2019-05-18T06:48:52.626Z,91.39
2019-05-18T06:49:52.624Z,90.62
2019-05-18T06:51:06.297Z,89.80
2019-05-18T06:51:52.608Z,89.04
2019-05-18T06:52:52.598Z,89.13
2019-05-18T06:53:52.593Z,87.70
2019-05-18T06:54:52.588Z,86.01
2019-05-18T06:55:52.580Z,85.34
2019-05-18T06:56:52.573Z,84.38
2019-05-18T06:57:52.566Z,84.58
2019-05-18T06:58:52.559Z,84.86
2019-05-18T06:59:52.555Z,84.19
2019-05-18T07:00:52.577Z,84.91
2019-05-18T07:01:52.538Z,85.88
2019-05-18T07:02:52.538Z,87.94
2019-05-18T07:03:52.527Z,89.14
2019-05-18T07:04:52.519Z,90.39
2019-05-18T07:05:52.516Z,90.77
2019-05-18T07:06:52.502Z,91.63
2019-05-18T07:07:52.499Z,93.12
2019-05-18T07:08:52.490Z,95.22
2019-05-18T07:09:52.484Z,95.98
2019-05-18T07:10:52.474Z,95.22
2019-05-18T07:11:52.469Z,94.65
2019-05-18T07:12:52.466Z,95.22
2019-05-18T07:13:52.472Z,94.31
2019-05-18T07:14:52.453Z,93.93
2019-05-18T07:15:52.445Z,93.30
2019-05-18T07:16:52.456Z,91.49
2019-05-18T07:17:52.427Z,89.57
2019-05-18T07:18:52.417Z,88.17
2019-05-18T07:19:52.412Z,86.54
2019-05-18T07:20:52.403Z,84.86
2019-05-18T07:21:52.396Z,83.52
2019-05-18T07:22:52.397Z,83.27
2019-05-18T07:23:52.385Z,82.79
2019-05-18T07:24:52.376Z,81.93
2019-05-18T07:25:52.372Z,81.35
2019-05-18T07:26:52.363Z,80.87
2019-05-18T07:27:52.358Z,80.63
2019-05-18T07:28:52.360Z,79.19
2019-05-18T07:29:52.350Z,79.38
2019-05-18T07:30:52.335Z,79.09
2019-05-18T07:31:52.332Z,78.80
2019-05-18T07:32:52.322Z,78.32
2019-05-18T07:33:52.318Z,78.99
2019-05-18T07:34:52.333Z,79.19
2019-05-18T07:35:52.304Z,79.96
2019-05-18T07:36:52.297Z,80.68
2019-05-18T07:37:52.292Z,80.68
2019-05-18T07:38:52.284Z,80.43
2019-05-18T07:39:52.281Z,79.44
2019-05-18T07:40:52.273Z,79.63
2019-05-18T07:41:52.270Z,79.14
2019-05-18T07:42:52.260Z,78.67
2019-05-18T07:43:52.255Z,78.86
2019-05-18T07:44:52.248Z,79.72
2019-05-18T07:45:52.242Z,79.91
2019-05-18T07:46:52.236Z,81.60
2019-05-18T07:47:52.232Z,82.08
2019-05-18T07:48:52.230Z,81.98
2019-05-18T07:49:52.219Z,81.02
2019-05-18T07:50:52.212Z,80.01
2019-05-18T07:51:52.206Z,79.91
2019-05-18T07:52:52.199Z,79.53
2019-05-18T07:53:52.193Z,80.11
2019-05-18T07:54:52.188Z,80.01
2019-05-18T07:55:52.182Z,79.91
2019-05-18T07:56:52.178Z,79.72
2019-05-18T07:57:52.222Z,79.44
2019-05-18T07:58:52.164Z,79.24
2019-05-18T07:59:52.158Z,80.30
2019-05-18T08:00:52.152Z,79.82
2019-05-18T08:01:52.144Z,79.72
2019-05-18T08:02:52.138Z,79.91
2019-05-18T08:03:52.138Z,80.58
2019-05-18T08:04:52.126Z,80.78
2019-05-18T08:05:52.119Z,81.45
2019-05-18T08:06:52.113Z,82.08
2019-05-18T08:07:52.117Z,82.94
2019-05-18T08:08:52.105Z,82.65
2019-05-18T08:09:52.142Z,84.09
2019-05-18T08:10:52.089Z,85.21
2019-05-18T08:11:52.081Z,85.25
2019-05-18T08:12:52.119Z,85.11
2019-05-18T08:13:52.069Z,84.72
2019-05-18T08:14:52.066Z,84.19
2019-05-18T08:15:52.062Z,84.09
2019-05-18T08:16:52.053Z,83.47
2019-05-18T08:17:52.048Z,83.47
2019-05-18T08:18:52.042Z,83.18
2019-05-18T08:19:52.037Z,82.51
2019-05-18T08:20:52.026Z,81.30
2019-05-18T08:21:53.504Z,81.01
2019-05-18T08:22:52.017Z,80.53
2019-05-18T08:23:52.008Z,80.19
2019-05-18T08:24:52.005Z,79.32
2019-05-18T08:25:51.998Z,79.80
2019-05-18T08:26:51.994Z,79.03
2019-05-18T08:27:51.988Z,79.13
2019-05-18T08:28:51.981Z,78.36
2019-05-18T08:29:51.982Z,78.84
2019-05-18T08:30:51.971Z,78.08
2019-05-18T08:31:51.974Z,77.50
2019-05-18T08:32:51.957Z,76.86
2019-05-18T08:33:51.951Z,76.19
2019-05-18T08:34:51.945Z,76.00
2019-05-18T08:35:51.941Z,76.29
2019-05-18T08:36:51.934Z,76.09
2019-05-18T08:37:51.929Z,74.85
2019-05-18T08:38:51.928Z,74.55
2019-05-18T08:39:51.919Z,74.50
2019-05-18T08:40:51.911Z,73.63
2019-05-18T08:41:51.909Z,73.63
2019-05-18T08:42:51.902Z,73.54
2019-05-18T08:43:51.897Z,74.11
2019-05-18T08:44:51.891Z,73.73
2019-05-18T08:45:51.886Z,74.11
2019-05-18T08:46:51.879Z,74.50
2019-05-18T08:47:51.876Z,74.11
2019-05-18T08:48:51.878Z,74.40
2019-05-18T08:49:51.867Z,74.46
2019-05-18T08:50:51.858Z,73.88
2019-05-18T08:51:51.854Z,73.79
2019-05-18T08:52:51.846Z,73.60
2019-05-18T08:53:51.853Z,73.50
2019-05-18T08:54:51.838Z,73.21
2019-05-18T08:55:51.838Z,73.41
2019-05-18T08:56:51.830Z,73.02
2019-05-18T08:57:51.823Z,73.06
2019-05-18T08:58:51.820Z,72.96
2019-05-18T08:59:51.812Z,72.38
2019-05-18T09:00:51.808Z,72.29
2019-05-18T09:01:51.801Z,71.75
2019-05-18T09:02:51.798Z,71.42
2019-05-18T09:03:51.794Z,72.09
2019-05-18T09:04:51.788Z,72.09
2019-05-18T09:05:51.783Z,71.91
2019-05-18T09:06:51.777Z,71.71
2019-05-18T09:07:51.773Z,71.33
2019-05-18T09:08:51.773Z,71.14
2019-05-18T09:09:51.762Z,71.61
2019-05-18T09:10:51.755Z,71.42
2019-05-18T09:11:51.752Z,71.61
2019-05-18T09:12:51.748Z,71.71
2019-05-18T09:13:51.743Z,71.42
2019-05-18T09:14:51.738Z,71.81
2019-05-18T09:15:51.732Z,72.09
2019-05-18T09:16:51.727Z,71.91
2019-05-18T09:17:51.720Z,71.81
2019-05-18T09:18:51.716Z,72.44
2019-05-18T09:19:51.711Z,72.86
2019-05-18T09:20:51.705Z,72.92
2019-05-18T09:21:51.702Z,72.96
2019-05-18T09:22:51.698Z,72.96
2019-05-18T09:23:51.694Z,72.92
2019-05-18T09:24:51.685Z,73.02
2019-05-18T09:25:51.682Z,73.44
2019-05-18T09:26:51.678Z,72.38
2019-05-18T09:27:51.670Z,72.58
2019-05-18T09:28:51.668Z,72.00
2019-05-18T09:29:51.662Z,72.00
2019-05-18T09:30:51.657Z,71.08
2019-05-18T09:31:51.660Z,71.17
2019-05-18T09:32:51.650Z,70.78
2019-05-18T09:33:51.648Z,71.08
2019-05-18T09:34:51.637Z,70.01
2019-05-18T09:35:51.634Z,69.24
2019-05-18T09:36:51.632Z,69.73
2019-05-18T09:37:51.627Z,69.34
2019-05-18T09:38:51.620Z,68.80
2019-05-18T09:39:51.618Z,68.70
2019-05-18T09:40:51.607Z,68.41
2019-05-18T09:41:51.609Z,68.41
2019-05-18T09:42:51.602Z,68.74
2019-05-18T09:43:51.595Z,67.65
2019-05-18T09:44:51.597Z,68.60
2019-05-18T09:45:51.586Z,68.76
2019-05-18T09:46:51.584Z,68.96
2019-05-18T09:47:51.581Z,69.38
2019-05-18T09:48:51.573Z,69.73
2019-05-18T09:49:51.569Z,70.30
2019-05-18T09:50:51.567Z,70.40
2019-05-18T09:51:51.559Z,70.78
2019-05-18T09:52:51.556Z,70.59
2019-05-18T09:53:52.079Z,69.34
2019-05-18T09:54:51.552Z,69.06
2019-05-18T09:55:51.541Z,69.92
2019-05-18T09:56:51.536Z,71.08
2019-05-18T09:57:51.534Z,70.78
2019-05-18T09:58:51.532Z,70.30
2019-05-18T09:59:51.528Z,70.15
2019-05-18T10:00:51.521Z,70.30
2019-05-18T10:01:51.518Z,68.99
2019-05-18T10:02:51.513Z,68.48
2019-05-18T10:03:51.509Z,69.09
2019-05-18T10:04:51.538Z,69.63
2019-05-18T10:05:51.496Z,70.11
2019-05-18T10:06:51.493Z,70.50
2019-05-18T10:07:51.491Z,71.08
2019-05-18T10:08:51.482Z,70.98
2019-05-18T10:09:51.475Z,71.08
2019-05-18T10:10:51.474Z,70.78
2019-05-18T10:11:51.472Z,71.17
2019-05-18T10:12:51.463Z,71.65
2019-05-18T10:13:51.517Z,71.17
2019-05-18T10:14:51.456Z,70.59
2019-05-18T10:15:51.456Z,69.73
2019-05-18T10:16:51.452Z,68.96
2019-05-18T10:17:51.442Z,69.28
2019-05-18T10:18:51.440Z,70.01
2019-05-18T10:19:51.432Z,69.06
2019-05-18T10:20:51.427Z,68.76
2019-05-18T10:21:51.423Z,68.03
2019-05-18T10:23:04.066Z,67.93
2019-05-18T10:23:51.416Z,68.13
2019-05-18T10:24:51.411Z,68.03
2019-05-18T10:25:51.409Z,67.74
2019-05-18T10:26:51.407Z,67.65
2019-05-18T10:27:51.399Z,67.74
2019-05-18T10:28:51.393Z,67.74
2019-05-18T10:29:51.390Z,67.55
2019-05-18T10:30:51.386Z,67.35
2019-05-18T10:31:51.390Z,67.83
2019-05-18T10:32:51.377Z,67.16
2019-05-18T10:33:51.373Z,66.78
2019-05-18T10:34:51.371Z,66.14
2019-05-18T10:35:51.364Z,65.56
2019-05-18T10:36:51.359Z,65.17
2019-05-18T10:37:51.356Z,65.46
2019-05-18T10:38:51.350Z,65.46
2019-05-18T10:39:51.350Z,65.17
2019-05-18T10:40:51.343Z,65.11
2019-05-18T10:41:51.335Z,65.20
2019-05-18T10:42:51.333Z,64.92
2019-05-18T10:43:51.331Z,65.01
2019-05-18T10:44:51.323Z,64.82
2019-05-18T10:45:51.321Z,64.34
2019-05-18T10:46:51.317Z,63.98
2019-05-18T10:47:51.319Z,63.47
2019-05-18T10:48:51.307Z,62.12
2019-05-18T10:49:51.305Z,62.90
2019-05-18T10:50:51.301Z,63.76
2019-05-18T10:51:51.297Z,64.92
2019-05-18T10:52:51.292Z,64.79
2019-05-18T10:53:51.287Z,65.11
2019-05-18T10:54:51.284Z,64.92
2019-05-18T10:55:51.281Z,65.46
2019-05-18T10:56:51.277Z,65.27
2019-05-18T10:57:51.273Z,65.66
2019-05-18T10:58:51.269Z,65.46
2019-05-18T10:59:51.265Z,65.37
2019-05-18T11:00:51.261Z,66.04
2019-05-18T11:01:51.258Z,66.42
2019-05-18T11:02:51.258Z,66.14
2019-05-18T11:03:51.249Z,65.66
2019-05-18T11:04:51.245Z,66.24
2019-05-18T11:05:51.243Z,66.91
2019-05-18T11:06:51.235Z,66.81
2019-05-18T11:07:51.234Z,66.24
2019-05-18T11:08:51.229Z,66.42
2019-05-18T11:09:51.222Z,66.42
2019-05-18T11:10:51.221Z,65.56
2019-05-18T11:11:51.215Z,64.79
2019-05-18T11:12:51.212Z,65.46
2019-05-18T11:13:51.207Z,65.85
2019-05-18T11:14:51.203Z,65.94
2019-05-18T11:15:51.202Z,66.33
2019-05-18T11:16:51.193Z,66.04
2019-05-18T11:17:51.195Z,66.71
2019-05-18T11:18:51.190Z,66.33
2019-05-18T11:19:51.184Z,66.91
2019-05-18T11:20:51.178Z,66.33
2019-05-18T11:21:51.174Z,67.16
2019-05-18T11:22:51.176Z,66.71
2019-05-18T11:23:51.166Z,66.24
2019-05-18T11:24:51.161Z,66.71
2019-05-18T11:25:51.165Z,65.37
2019-05-18T11:26:51.155Z,64.98
2019-05-18T11:27:51.149Z,65.01
2019-05-18T11:28:51.163Z,65.78
2019-05-18T11:29:51.143Z,65.69
2019-05-18T11:30:51.137Z,65.01
2019-05-18T11:31:51.135Z,65.50
2019-05-18T11:32:51.137Z,65.59
2019-05-18T11:33:51.126Z,65.59
2019-05-18T11:34:51.131Z,65.59
2019-05-18T11:35:51.122Z,65.59
2019-05-18T11:36:51.118Z,64.92
2019-05-18T11:37:51.111Z,64.92
2019-05-18T11:38:51.109Z,65.01
2019-05-18T11:39:51.138Z,64.08
2019-05-18T11:40:51.098Z,63.70
2019-05-18T11:41:51.097Z,63.70
2019-05-18T11:42:51.089Z,63.31
2019-05-18T11:43:51.086Z,63.31
2019-05-18T11:44:51.083Z,63.60
2019-05-18T11:45:51.078Z,63.60
2019-05-18T11:46:51.077Z,63.98
2019-05-18T11:47:51.069Z,63.31
2019-05-18T11:48:51.067Z,64.08
2019-05-18T11:49:51.269Z,63.89
2019-05-18T11:50:51.062Z,63.98
2019-05-18T11:51:51.057Z,63.31
2019-05-18T11:52:51.054Z,63.98
2019-05-18T11:53:58.211Z,64.56
2019-05-18T11:54:51.046Z,64.47
2019-05-18T11:55:51.043Z,63.70
2019-05-18T11:56:51.067Z,64.56
2019-05-18T11:57:51.033Z,63.89
2019-05-18T11:58:51.027Z,63.79
2019-05-18T11:59:51.025Z,63.50
2019-05-18T12:00:51.025Z,63.98
2019-05-18T12:01:51.018Z,64.37
2019-05-18T12:02:51.014Z,63.98
2019-05-18T12:03:51.010Z,64.08
2019-05-18T12:04:51.005Z,64.76
2019-05-18T12:05:51.005Z,64.08
2019-05-18T12:06:51.007Z,64.86
2019-05-18T12:07:50.996Z,64.56
2019-05-18T12:08:51.006Z,63.89
2019-05-18T12:09:50.991Z,64.37
2019-05-18T12:10:52.292Z,64.95
2019-05-18T12:11:50.994Z,64.95
2019-05-18T12:12:50.978Z,64.66
2019-05-18T12:13:50.974Z,65.33
2019-05-18T12:14:50.971Z,64.28
2019-05-18T12:15:50.969Z,64.37
2019-05-18T12:16:50.966Z,64.37
2019-05-18T12:17:50.959Z,63.89
2019-05-18T12:18:50.956Z,63.41
2019-05-18T12:19:50.954Z,63.21
2019-05-18T12:20:50.945Z,63.60
2019-05-18T12:21:50.944Z,63.12
2019-05-18T12:22:50.955Z,63.02
2019-05-18T12:23:50.945Z,62.83
2019-05-18T12:24:50.932Z,61.99
2019-05-18T12:25:50.979Z,62.09
2019-05-18T12:26:50.934Z,62.48
2019-05-18T12:27:50.926Z,62.57
2019-05-18T12:28:50.916Z,62.57
2019-05-18T12:29:50.917Z,62.76
2019-05-18T12:30:50.913Z,61.71
2019-05-18T12:31:50.906Z,62.02
2019-05-18T12:32:50.902Z,62.70
2019-05-18T12:33:50.927Z,63.09
2019-05-18T12:34:50.894Z,62.60
2019-05-18T12:35:50.894Z,62.41
2019-05-18T12:36:50.887Z,61.51
2019-05-18T12:37:50.885Z,61.03
2019-05-18T12:38:50.881Z,61.44
2019-05-18T12:39:50.878Z,60.16
2019-05-18T12:40:50.873Z,61.13
2019-05-18T12:41:50.871Z,61.22
2019-05-18T12:42:50.868Z,60.93
2019-05-18T12:43:50.882Z,60.64
2019-05-18T12:44:50.865Z,60.64
2019-05-18T12:45:50.858Z,60.64
2019-05-18T12:46:50.927Z,60.83
2019-05-18T12:47:50.850Z,60.35
2019-05-18T12:48:50.860Z,61.13
2019-05-18T12:49:50.844Z,61.03
2019-05-18T12:50:50.842Z,61.03
2019-05-18T12:51:50.838Z,61.13
2019-05-18T12:52:50.833Z,60.83